Mohammed V International Airport (CMN/GMMN)




Flight Aircraft Arriving
CPX1156 B738
EBLG - Liège Airport
Belgium Liege, Belgium
Flight Aircraft Departing
CPX1155 B738
EBLG - Liège Airport
Belgium Liege, Belgium
Airport Information
Location: Casablanca, MA
Coordinates: 33.3642 / -7.58167
Elevation:
Time Offset:
Local Time:
UTC Time:
Jet A Price: $0.75/lbs

Current Weather
METAR: GMMN 050700Z 19005KT 6000 FEW020 SCT200 11/11 Q1017 NOSIG
TAF: TAF GMMN 050500Z 0506/0612 18005KT 5000 SCT014 SCT100 BECMG 0506/0508 2000 BR BKN006 BECMG 0508/0512 32012KT CAVOK BECMG 0520/0524 VRB02KT PROB30 TEMPO 0600/0608 0800 FG BKN001

Recent Arrivals
Date Flight Type Depart
10/20/2019 CPX755 B738 Liège Airport (EBLG)
Recent Departures
Date Flight Type Arrive
10/31/2019 CPX756 B738 Liège Airport (EBLG)